sensor_id;sensor_type;location;lat;lon;timestamp;P1;durP1;ratioP1;P2;durP2;ratioP2
11935;SDS011;6027;48.576;9.180;2022-09-13T00:02:01;4.78;;;1.40;;
11935;SDS011;6027;48.576;9.180;2022-09-13T00:04:26;2.22;;;1.40;;
11935;SDS011;6027;48.576;9.180;2022-09-13T00:06:52;1.85;;;1.17;;
11935;SDS011;6027;48.576;9.180;2022-09-13T00:09:17;3.15;;;1.50;;
11935;SDS011;6027;48.576;9.180;2022-09-13T00:11:43;1.70;;;1.50;;
11935;SDS011;6027;48.576;9.180;2022-09-13T00:14:08;1.40;;;1.30;;
11935;SDS011;6027;48.576;9.180;2022-09-13T00:16:34;1.50;;;1.15;;
11935;SDS011;6027;48.576;9.180;2022-09-13T00:19:00;2.65;;;1.50;;
11935;SDS011;6027;48.576;9.180;2022-09-13T00:21:25;2.03;;;1.38;;
11935;SDS011;6027;48.576;9.180;2022-09-13T00:23:52;1.50;;;1.40;;
11935;SDS011;6027;48.576;9.180;2022-09-13T00:26:20;2.42;;;1.50;;
11935;SDS011;6027;48.576;9.180;2022-09-13T00:28:48;1.63;;;1.48;;
11935;SDS011;6027;48.576;9.180;2022-09-13T00:31:17;1.88;;;1.55;;
11935;SDS011;6027;48.576;9.180;2022-09-13T00:33:43;1.92;;;1.70;;
11935;SDS011;6027;48.576;9.180;2022-09-13T00:36:09;2.08;;;1.42;;
11935;SDS011;6027;48.576;9.180;2022-09-13T00:38:37;3.63;;;1.60;;
11935;SDS011;6027;48.576;9.180;2022-09-13T00:41:04;1.50;;;1.40;;
11935;SDS011;6027;48.576;9.180;2022-09-13T00:46:20;1.20;;;1.15;;
11935;SDS011;6027;48.576;9.180;2022-09-13T00:49:13;1.40;;;1.20;;
11935;SDS011;6027;48.576;9.180;2022-09-13T00:51:44;1.45;;;1.35;;
11935;SDS011;6027;48.576;9.180;2022-09-13T00:54:15;2.88;;;1.30;;
11935;SDS011;6027;48.576;9.180;2022-09-13T00:56:45;1.60;;;1.50;;
11935;SDS011;6027;48.576;9.180;2022-09-13T00:59:16;2.03;;;1.40;;
11935;SDS011;6027;48.576;9.180;2022-09-13T01:01:53;2.00;;;1.50;;
11935;SDS011;6027;48.576;9.180;2022-09-13T01:04:21;1.92;;;1.25;;
11935;SDS011;6027;48.576;9.180;2022-09-13T01:06:51;2.58;;;1.73;;
11935;SDS011;6027;48.576;9.180;2022-09-13T01:09:20;2.88;;;1.38;;
11935;SDS011;6027;48.576;9.180;2022-09-13T01:11:51;1.60;;;1.50;;
11935;SDS011;6027;48.576;9.180;2022-09-13T01:14:29;1.60;;;1.20;;
11935;SDS011;6027;48.576;9.180;2022-09-13T01:16:56;4.50;;;1.38;;
11935;SDS011;6027;48.576;9.180;2022-09-13T01:19:21;2.10;;;1.50;;
11935;SDS011;6027;48.576;9.180;2022-09-13T01:52:11;2.15;;;1.60;;
11935;SDS011;6027;48.576;9.180;2022-09-13T01:57:27;1.52;;;1.42;;
11935;SDS011;6027;48.576;9.180;2022-09-13T02:00:00;2.20;;;1.52;;
11935;SDS011;6027;48.576;9.180;2022-09-13T02:02:37;2.83;;;1.50;;
11935;SDS011;6027;48.576;9.180;2022-09-13T02:05:18;1.77;;;1.33;;
11935;SDS011;6027;48.576;9.180;2022-09-13T02:13:43;1.33;;;1.23;;
11935;SDS011;6027;48.576;9.180;2022-09-13T02:16:18;2.22;;;1.50;;
11935;SDS011;6027;48.576;9.180;2022-09-13T02:18:51;1.80;;;1.60;;
11935;SDS011;6027;48.576;9.180;2022-09-13T02:21:27;1.35;;;1.25;;
11935;SDS011;6027;48.576;9.180;2022-09-13T02:24:00;2.33;;;1.58;;
11935;SDS011;6027;48.576;9.180;2022-09-13T02:26:29;1.65;;;1.30;;
11935;SDS011;6027;48.576;9.180;2022-09-13T02:28:59;2.08;;;1.60;;
11935;SDS011;6027;48.576;9.180;2022-09-13T02:31:39;3.13;;;1.60;;
11935;SDS011;6027;48.576;9.180;2022-09-13T02:34:17;1.75;;;1.40;;
11935;SDS011;6027;48.576;9.180;2022-09-13T02:36:46;1.40;;;1.25;;
11935;SDS011;6027;48.576;9.180;2022-09-13T02:39:14;2.95;;;1.40;;
11935;SDS011;6027;48.576;9.180;2022-09-13T02:41:45;1.45;;;1.35;;
11935;SDS011;6027;48.576;9.180;2022-09-13T02:44:45;1.50;;;1.35;;
11935;SDS011;6027;48.576;9.180;2022-09-13T02:57:53;3.22;;;1.52;;
11935;SDS011;6027;48.576;9.180;2022-09-13T03:00:25;4.68;;;1.90;;
11935;SDS011;6027;48.576;9.180;2022-09-13T03:02:52;1.80;;;1.70;;
11935;SDS011;6027;48.576;9.180;2022-09-13T03:05:21;2.15;;;1.48;;
11935;SDS011;6027;48.576;9.180;2022-09-13T03:07:47;3.92;;;1.70;;
11935;SDS011;6027;48.576;9.180;2022-09-13T03:10:13;1.70;;;1.60;;
11935;SDS011;6027;48.576;9.180;2022-09-13T03:21:33;4.75;;;1.92;;
11935;SDS011;6027;48.576;9.180;2022-09-13T03:29:30;1.75;;;1.65;;
11935;SDS011;6027;48.576;9.180;2022-09-13T03:37:57;2.70;;;1.98;;
11935;SDS011;6027;48.576;9.180;2022-09-13T03:40:51;2.35;;;1.90;;
11935;SDS011;6027;48.576;9.180;2022-09-13T03:46:03;4.85;;;2.30;;
11935;SDS011;6027;48.576;9.180;2022-09-13T03:48:33;6.97;;;2.22;;
11935;SDS011;6027;48.576;9.180;2022-09-13T03:51:02;2.30;;;2.10;;
11935;SDS011;6027;48.576;9.180;2022-09-13T03:53:29;3.35;;;1.98;;
11935;SDS011;6027;48.576;9.180;2022-09-13T03:55:58;2.72;;;2.00;;
11935;SDS011;6027;48.576;9.180;2022-09-13T03:58:24;3.35;;;2.28;;
11935;SDS011;6027;48.576;9.180;2022-09-13T04:00:50;2.30;;;2.10;;
11935;SDS011;6027;48.576;9.180;2022-09-13T04:03:18;3.58;;;2.00;;
11935;SDS011;6027;48.576;9.180;2022-09-13T04:05:44;2.95;;;2.28;;
11935;SDS011;6027;48.576;9.180;2022-09-13T04:08:10;2.47;;;2.25;;
11935;SDS011;6027;48.576;9.180;2022-09-13T04:10:36;2.47;;;2.20;;
11935;SDS011;6027;48.576;9.180;2022-09-13T04:13:02;4.47;;;2.28;;
11935;SDS011;6027;48.576;9.180;2022-09-13T04:15:29;3.45;;;2.00;;
11935;SDS011;6027;48.576;9.180;2022-09-13T04:17:58;2.53;;;1.92;;
11935;SDS011;6027;48.576;9.180;2022-09-13T04:20:25;2.33;;;2.13;;
11935;SDS011;6027;48.576;9.180;2022-09-13T04:22:51;2.85;;;1.80;;
11935;SDS011;6027;48.576;9.180;2022-09-13T04:25:20;2.50;;;2.17;;
11935;SDS011;6027;48.576;9.180;2022-09-13T04:27:46;2.58;;;2.38;;
11935;SDS011;6027;48.576;9.180;2022-09-13T04:30:13;4.22;;;2.20;;
11935;SDS011;6027;48.576;9.180;2022-09-13T04:32:41;3.30;;;1.95;;
11935;SDS011;6027;48.576;9.180;2022-09-13T04:35:07;2.85;;;2.08;;
11935;SDS011;6027;48.576;9.180;2022-09-13T04:37:33;2.78;;;2.10;;
11935;SDS011;6027;48.576;9.180;2022-09-13T04:39:58;4.40;;;2.30;;
11935;SDS011;6027;48.576;9.180;2022-09-13T04:42:24;2.28;;;2.08;;
11935;SDS011;6027;48.576;9.180;2022-09-13T04:44:49;2.50;;;2.20;;
11935;SDS011;6027;48.576;9.180;2022-09-13T04:49:42;3.08;;;2.30;;
11935;SDS011;6027;48.576;9.180;2022-09-13T04:52:08;2.72;;;2.53;;
11935;SDS011;6027;48.576;9.180;2022-09-13T04:54:33;3.92;;;2.17;;
11935;SDS011;6027;48.576;9.180;2022-09-13T04:56:59;2.40;;;2.17;;
11935;SDS011;6027;48.576;9.180;2022-09-13T04:59:24;4.07;;;2.33;;
11935;SDS011;6027;48.576;9.180;2022-09-13T05:01:50;3.53;;;2.10;;
11935;SDS011;6027;48.576;9.180;2022-09-13T05:04:16;3.50;;;2.35;;
11935;SDS011;6027;48.576;9.180;2022-09-13T05:06:41;4.40;;;2.47;;
11935;SDS011;6027;48.576;9.180;2022-09-13T05:09:09;3.75;;;2.40;;
11935;SDS011;6027;48.576;9.180;2022-09-13T05:11:37;2.22;;;1.92;;
11935;SDS011;6027;48.576;9.180;2022-09-13T05:14:02;2.58;;;2.20;;
11935;SDS011;6027;48.576;9.180;2022-09-13T05:16:30;3.08;;;2.38;;
11935;SDS011;6027;48.576;9.180;2022-09-13T05:18:57;6.78;;;2.60;;
11935;SDS011;6027;48.576;9.180;2022-09-13T05:21:23;2.47;;;2.28;;
11935;SDS011;6027;48.576;9.180;2022-09-13T05:23:50;4.68;;;2.35;;
11935;SDS011;6027;48.576;9.180;2022-09-13T05:26:18;3.30;;;2.53;;
11935;SDS011;6027;48.576;9.180;2022-09-13T05:28:45;4.85;;;2.22;;
11935;SDS011;6027;48.576;9.180;2022-09-13T05:31:21;2.90;;;2.33;;
11935;SDS011;6027;48.576;9.180;2022-09-13T05:33:53;5.93;;;2.40;;
11935;SDS011;6027;48.576;9.180;2022-09-13T05:36:20;4.60;;;2.47;;
11935;SDS011;6027;48.576;9.180;2022-09-13T05:38:46;3.65;;;2.20;;
11935;SDS011;6027;48.576;9.180;2022-09-13T05:41:11;5.47;;;2.40;;
11935;SDS011;6027;48.576;9.180;2022-09-13T05:43:36;4.70;;;2.45;;
11935;SDS011;6027;48.576;9.180;2022-09-13T05:48:34;5.90;;;2.70;;
11935;SDS011;6027;48.576;9.180;2022-09-13T05:51:19;2.65;;;2.40;;
11935;SDS011;6027;48.576;9.180;2022-09-13T05:53:48;2.30;;;2.10;;
11935;SDS011;6027;48.576;9.180;2022-09-13T05:56:18;4.05;;;2.35;;
11935;SDS011;6027;48.576;9.180;2022-09-13T05:58:49;2.85;;;2.45;;
11935;SDS011;6027;48.576;9.180;2022-09-13T06:01:16;2.60;;;2.13;;
11935;SDS011;6027;48.576;9.180;2022-09-13T06:03:47;6.70;;;2.70;;
11935;SDS011;6027;48.576;9.180;2022-09-13T06:06:13;3.22;;;2.17;;
11935;SDS011;6027;48.576;9.180;2022-09-13T06:08:39;3.75;;;2.55;;
11935;SDS011;6027;48.576;9.180;2022-09-13T06:13:35;3.35;;;2.35;;
11935;SDS011;6027;48.576;9.180;2022-09-13T06:16:01;2.85;;;2.40;;
11935;SDS011;6027;48.576;9.180;2022-09-13T06:18:28;3.83;;;3.00;;
11935;SDS011;6027;48.576;9.180;2022-09-13T06:20:58;5.80;;;3.13;;
11935;SDS011;6027;48.576;9.180;2022-09-13T06:23:25;3.85;;;2.78;;
11935;SDS011;6027;48.576;9.180;2022-09-13T06:25:58;3.97;;;2.72;;
11935;SDS011;6027;48.576;9.180;2022-09-13T06:28:34;4.45;;;2.80;;
11935;SDS011;6027;48.576;9.180;2022-09-13T06:33:31;5.03;;;3.10;;
11935;SDS011;6027;48.576;9.180;2022-09-13T06:36:05;3.47;;;2.70;;
11935;SDS011;6027;48.576;9.180;2022-09-13T06:38:32;2.90;;;2.58;;
11935;SDS011;6027;48.576;9.180;2022-09-13T06:41:08;3.10;;;2.80;;
11935;SDS011;6027;48.576;9.180;2022-09-13T06:43:38;4.93;;;3.00;;
11935;SDS011;6027;48.576;9.180;2022-09-13T06:46:05;3.95;;;2.70;;
11935;SDS011;6027;48.576;9.180;2022-09-13T06:48:37;4.70;;;2.75;;
11935;SDS011;6027;48.576;9.180;2022-09-13T06:51:05;4.13;;;2.67;;
11935;SDS011;6027;48.576;9.180;2022-09-13T06:53:32;5.60;;;2.70;;
11935;SDS011;6027;48.576;9.180;2022-09-13T06:56:03;4.45;;;2.83;;
11935;SDS011;6027;48.576;9.180;2022-09-13T06:58:31;6.25;;;2.80;;
11935;SDS011;6027;48.576;9.180;2022-09-13T07:01:14;3.60;;;2.78;;
11935;SDS011;6027;48.576;9.180;2022-09-13T07:03:41;2.92;;;2.70;;
11935;SDS011;6027;48.576;9.180;2022-09-13T07:06:12;3.22;;;2.80;;
11935;SDS011;6027;48.576;9.180;2022-09-13T07:08:40;3.50;;;2.60;;
11935;SDS011;6027;48.576;9.180;2022-09-13T07:11:07;3.60;;;2.72;;
11935;SDS011;6027;48.576;9.180;2022-09-13T07:13:34;4.15;;;2.80;;
11935;SDS011;6027;48.576;9.180;2022-09-13T07:16:01;2.95;;;2.53;;
11935;SDS011;6027;48.576;9.180;2022-09-13T07:18:30;3.15;;;2.50;;
11935;SDS011;6027;48.576;9.180;2022-09-13T07:21:00;4.22;;;2.42;;
11935;SDS011;6027;48.576;9.180;2022-09-13T07:23:28;7.50;;;2.60;;
11935;SDS011;6027;48.576;9.180;2022-09-13T07:25:54;2.88;;;2.60;;
11935;SDS011;6027;48.576;9.180;2022-09-13T07:28:26;5.82;;;2.72;;
11935;SDS011;6027;48.576;9.180;2022-09-13T07:30:57;3.03;;;2.50;;
11935;SDS011;6027;48.576;9.180;2022-09-13T07:33:28;4.38;;;2.50;;
11935;SDS011;6027;48.576;9.180;2022-09-13T07:35:55;2.90;;;2.10;;
11935;SDS011;6027;48.576;9.180;2022-09-13T07:38:21;2.50;;;2.30;;
11935;SDS011;6027;48.576;9.180;2022-09-13T07:40:54;5.35;;;2.00;;
11935;SDS011;6027;48.576;9.180;2022-09-13T07:43:20;4.30;;;2.60;;
11935;SDS011;6027;48.576;9.180;2022-09-13T07:45:46;5.78;;;2.60;;
11935;SDS011;6027;48.576;9.180;2022-09-13T07:48:11;5.10;;;2.40;;
11935;SDS011;6027;48.576;9.180;2022-09-13T07:50:37;3.28;;;1.98;;
11935;SDS011;6027;48.576;9.180;2022-09-13T07:53:02;3.50;;;2.13;;
11935;SDS011;6027;48.576;9.180;2022-09-13T07:55:28;4.35;;;2.20;;
11935;SDS011;6027;48.576;9.180;2022-09-13T07:57:54;2.72;;;1.80;;
11935;SDS011;6027;48.576;9.180;2022-09-13T08:00:19;3.63;;;1.95;;
11935;SDS011;6027;48.576;9.180;2022-09-13T08:02:45;2.47;;;1.80;;
11935;SDS011;6027;48.576;9.180;2022-09-13T08:05:10;2.03;;;1.70;;
11935;SDS011;6027;48.576;9.180;2022-09-13T08:07:36;2.45;;;1.75;;
11935;SDS011;6027;48.576;9.180;2022-09-13T08:10:01;2.85;;;1.90;;
11935;SDS011;6027;48.576;9.180;2022-09-13T08:12:27;3.97;;;1.80;;
11935;SDS011;6027;48.576;9.180;2022-09-13T08:14:52;2.10;;;1.48;;
11935;SDS011;6027;48.576;9.180;2022-09-13T08:17:17;3.45;;;1.45;;
11935;SDS011;6027;48.576;9.180;2022-09-13T08:19:43;2.60;;;1.40;;
11935;SDS011;6027;48.576;9.180;2022-09-13T08:24:42;3.35;;;1.48;;
11935;SDS011;6027;48.576;9.180;2022-09-13T08:27:07;2.33;;;1.52;;
11935;SDS011;6027;48.576;9.180;2022-09-13T08:29:33;2.80;;;1.52;;
11935;SDS011;6027;48.576;9.180;2022-09-13T08:31:58;1.65;;;1.50;;
11935;SDS011;6027;48.576;9.180;2022-09-13T08:34:24;1.52;;;1.40;;
11935;SDS011;6027;48.576;9.180;2022-09-13T08:36:49;2.55;;;1.45;;
11935;SDS011;6027;48.576;9.180;2022-09-13T08:39:15;3.50;;;1.50;;
11935;SDS011;6027;48.576;9.180;2022-09-13T08:46:51;2.55;;;1.40;;
11935;SDS011;6027;48.576;9.180;2022-09-13T08:49:31;1.45;;;1.35;;
11935;SDS011;6027;48.576;9.180;2022-09-13T08:52:11;1.88;;;1.40;;
11935;SDS011;6027;48.576;9.180;2022-09-13T08:54:41;1.55;;;1.23;;
11935;SDS011;6027;48.576;9.180;2022-09-13T08:57:21;3.10;;;1.55;;
11935;SDS011;6027;48.576;9.180;2022-09-13T09:07:45;2.75;;;1.45;;
11935;SDS011;6027;48.576;9.180;2022-09-13T09:10:20;2.70;;;1.48;;
11935;SDS011;6027;48.576;9.180;2022-09-13T09:13:06;2.45;;;1.48;;
11935;SDS011;6027;48.576;9.180;2022-09-13T09:15:57;3.47;;;1.30;;
11935;SDS011;6027;48.576;9.180;2022-09-13T09:18:31;5.90;;;1.70;;
11935;SDS011;6027;48.576;9.180;2022-09-13T09:21:02;6.40;;;1.40;;
11935;SDS011;6027;48.576;9.180;2022-09-13T09:23:30;2.25;;;1.42;;
11935;SDS011;6027;48.576;9.180;2022-09-13T09:26:20;1.75;;;1.30;;
11935;SDS011;6027;48.576;9.180;2022-09-13T09:28:58;1.23;;;1.13;;
11935;SDS011;6027;48.576;9.180;2022-09-13T09:34:19;1.33;;;1.20;;
11935;SDS011;6027;48.576;9.180;2022-09-13T09:37:03;1.50;;;1.13;;
11935;SDS011;6027;48.576;9.180;2022-09-13T09:39:36;2.75;;;1.35;;
11935;SDS011;6027;48.576;9.180;2022-09-13T09:42:06;3.50;;;1.40;;
11935;SDS011;6027;48.576;9.180;2022-09-13T09:44:37;1.15;;;1.10;;
11935;SDS011;6027;48.576;9.180;2022-09-13T09:50:02;2.00;;;1.50;;
11935;SDS011;6027;48.576;9.180;2022-09-13T10:00:22;1.45;;;1.20;;
11935;SDS011;6027;48.576;9.180;2022-09-13T10:02:50;1.20;;;1.10;;
11935;SDS011;6027;48.576;9.180;2022-09-13T10:05:19;1.67;;;1.10;;
11935;SDS011;6027;48.576;9.180;2022-09-13T10:07:53;3.08;;;1.20;;
11935;SDS011;6027;48.576;9.180;2022-09-13T10:10:23;1.00;;;0.90;;
11935;SDS011;6027;48.576;9.180;2022-09-13T10:13:00;1.10;;;1.00;;
11935;SDS011;6027;48.576;9.180;2022-09-13T10:15:29;0.80;;;0.80;;
11935;SDS011;6027;48.576;9.180;2022-09-13T10:18:01;1.08;;;1.00;;
11935;SDS011;6027;48.576;9.180;2022-09-13T10:20:33;2.58;;;1.05;;
11935;SDS011;6027;48.576;9.180;2022-09-13T10:25:35;2.00;;;0.90;;
11935;SDS011;6027;48.576;9.180;2022-09-13T10:28:01;1.02;;;0.93;;
11935;SDS011;6027;48.576;9.180;2022-09-13T10:30:43;1.58;;;0.90;;
11935;SDS011;6027;48.576;9.180;2022-09-13T10:33:35;0.70;;;0.70;;
11935;SDS011;6027;48.576;9.180;2022-09-13T10:36:14;2.55;;;0.90;;
11935;SDS011;6027;48.576;9.180;2022-09-13T10:38:50;0.95;;;0.90;;
11935;SDS011;6027;48.576;9.180;2022-09-13T10:41:23;2.17;;;1.00;;
11935;SDS011;6027;48.576;9.180;2022-09-13T10:43:59;0.80;;;0.80;;
11935;SDS011;6027;48.576;9.180;2022-09-13T10:46:31;1.13;;;0.90;;
11935;SDS011;6027;48.576;9.180;2022-09-13T10:49:00;1.02;;;0.90;;
11935;SDS011;6027;48.576;9.180;2022-09-13T10:54:08;2.35;;;0.90;;
11935;SDS011;6027;48.576;9.180;2022-09-13T10:56:41;2.15;;;0.80;;
11935;SDS011;6027;48.576;9.180;2022-09-13T11:12:24;1.27;;;0.80;;
11935;SDS011;6027;48.576;9.180;2022-09-13T11:20:53;1.58;;;0.80;;
11935;SDS011;6027;48.576;9.180;2022-09-13T11:26:35;0.70;;;0.70;;
11935;SDS011;6027;48.576;9.180;2022-09-13T11:31:47;1.08;;;0.80;;
11935;SDS011;6027;48.576;9.180;2022-09-13T11:34:18;1.10;;;0.70;;
11935;SDS011;6027;48.576;9.180;2022-09-13T11:45:41;2.20;;;0.80;;
11935;SDS011;6027;48.576;9.180;2022-09-13T11:50:48;1.20;;;0.80;;
11935;SDS011;6027;48.576;9.180;2022-09-13T11:55:55;0.85;;;0.85;;
11935;SDS011;6027;48.576;9.180;2022-09-13T11:58:41;1.13;;;0.90;;
11935;SDS011;6027;48.576;9.180;2022-09-13T12:01:15;0.77;;;0.60;;
11935;SDS011;6027;48.576;9.180;2022-09-13T12:06:51;0.70;;;0.70;;
11935;SDS011;6027;48.576;9.180;2022-09-13T12:09:25;1.10;;;0.70;;
11935;SDS011;6027;48.576;9.180;2022-09-13T12:12:02;2.05;;;0.75;;
11935;SDS011;6027;48.576;9.180;2022-09-13T12:14:35;1.05;;;0.70;;
11935;SDS011;6027;48.576;9.180;2022-09-13T12:17:23;2.40;;;0.70;;
11935;SDS011;6027;48.576;9.180;2022-09-13T12:19:53;1.10;;;0.80;;
11935;SDS011;6027;48.576;9.180;2022-09-13T12:22:22;1.98;;;0.68;;
11935;SDS011;6027;48.576;9.180;2022-09-13T12:25:38;0.60;;;0.60;;
11935;SDS011;6027;48.576;9.180;2022-09-13T12:27:53;0.60;;;0.52;;
11935;SDS011;6027;48.576;9.180;2022-09-13T12:30:24;4.82;;;0.88;;
11935;SDS011;6027;48.576;9.180;2022-09-13T12:32:57;1.95;;;0.70;;
11935;SDS011;6027;48.576;9.180;2022-09-13T12:35:30;0.60;;;0.60;;
11935;SDS011;6027;48.576;9.180;2022-09-13T12:44:14;0.77;;;0.70;;
11935;SDS011;6027;48.576;9.180;2022-09-13T12:47:15;1.23;;;0.57;;
11935;SDS011;6027;48.576;9.180;2022-09-13T13:01:12;0.68;;;0.68;;
11935;SDS011;6027;48.576;9.180;2022-09-13T13:03:44;0.70;;;0.52;;
11935;SDS011;6027;48.576;9.180;2022-09-13T13:08:50;0.60;;;0.60;;
11935;SDS011;6027;48.576;9.180;2022-09-13T13:11:18;1.08;;;0.50;;
11935;SDS011;6027;48.576;9.180;2022-09-13T13:13:55;1.08;;;0.60;;
11935;SDS011;6027;48.576;9.180;2022-09-13T13:16:37;0.47;;;0.47;;
11935;SDS011;6027;48.576;9.180;2022-09-13T13:25:25;0.73;;;0.45;;
11935;SDS011;6027;48.576;9.180;2022-09-13T13:31:08;0.60;;;0.60;;
11935;SDS011;6027;48.576;9.180;2022-09-13T13:39:03;1.85;;;0.50;;
11935;SDS011;6027;48.576;9.180;2022-09-13T13:54:56;0.82;;;0.60;;
11935;SDS011;6027;48.576;9.180;2022-09-13T14:00:04;1.38;;;0.60;;
11935;SDS011;6027;48.576;9.180;2022-09-13T14:16:08;2.72;;;0.85;;
11935;SDS011;6027;48.576;9.180;2022-09-13T14:21:31;0.45;;;0.45;;
11935;SDS011;6027;48.576;9.180;2022-09-13T14:26:56;0.50;;;0.50;;
11935;SDS011;6027;48.576;9.180;2022-09-13T14:29:23;2.70;;;0.65;;
11935;SDS011;6027;48.576;9.180;2022-09-13T14:31:51;1.65;;;0.50;;
11935;SDS011;6027;48.576;9.180;2022-09-13T14:34:19;0.60;;;0.60;;
11935;SDS011;6027;48.576;9.180;2022-09-13T14:36:54;1.05;;;0.60;;
11935;SDS011;6027;48.576;9.180;2022-09-13T14:39:21;4.57;;;0.73;;
11935;SDS011;6027;48.576;9.180;2022-09-13T14:44:21;0.90;;;0.60;;
11935;SDS011;6027;48.576;9.180;2022-09-13T14:46:50;0.50;;;0.50;;
11935;SDS011;6027;48.576;9.180;2022-09-13T14:49:29;0.50;;;0.50;;
11935;SDS011;6027;48.576;9.180;2022-09-13T14:52:01;1.45;;;0.52;;
11935;SDS011;6027;48.576;9.180;2022-09-13T14:57:05;0.50;;;0.50;;
11935;SDS011;6027;48.576;9.180;2022-09-13T14:59:35;1.27;;;0.57;;
11935;SDS011;6027;48.576;9.180;2022-09-13T15:02:22;0.47;;;0.47;;
11935;SDS011;6027;48.576;9.180;2022-09-13T15:04:53;0.75;;;0.63;;
11935;SDS011;6027;48.576;9.180;2022-09-13T15:07:22;1.67;;;0.60;;
11935;SDS011;6027;48.576;9.180;2022-09-13T15:09:54;0.73;;;0.70;;
11935;SDS011;6027;48.576;9.180;2022-09-13T15:12:25;0.50;;;0.50;;
11935;SDS011;6027;48.576;9.180;2022-09-13T15:17:52;1.42;;;0.63;;
11935;SDS011;6027;48.576;9.180;2022-09-13T15:20:49;2.15;;;0.70;;
11935;SDS011;6027;48.576;9.180;2022-09-13T15:23:17;3.13;;;0.80;;
11935;SDS011;6027;48.576;9.180;2022-09-13T15:25:52;1.48;;;0.88;;
11935;SDS011;6027;48.576;9.180;2022-09-13T15:28:21;1.25;;;0.70;;
11935;SDS011;6027;48.576;9.180;2022-09-13T15:30:49;1.23;;;0.70;;
11935;SDS011;6027;48.576;9.180;2022-09-13T15:33:22;3.63;;;0.82;;
11935;SDS011;6027;48.576;9.180;2022-09-13T15:35:50;1.42;;;0.70;;
11935;SDS011;6027;48.576;9.180;2022-09-13T15:43:37;0.90;;;0.70;;
11935;SDS011;6027;48.576;9.180;2022-09-13T15:46:03;2.05;;;0.60;;
11935;SDS011;6027;48.576;9.180;2022-09-13T15:48:31;0.95;;;0.80;;
11935;SDS011;6027;48.576;9.180;2022-09-13T15:53:32;2.78;;;0.93;;
11935;SDS011;6027;48.576;9.180;2022-09-13T15:55:59;1.38;;;0.95;;
11935;SDS011;6027;48.576;9.180;2022-09-13T15:58:25;0.60;;;0.60;;
11935;SDS011;6027;48.576;9.180;2022-09-13T16:00:50;1.33;;;0.82;;
11935;SDS011;6027;48.576;9.180;2022-09-13T16:03:16;2.05;;;0.60;;
11935;SDS011;6027;48.576;9.180;2022-09-13T16:05:41;1.15;;;0.70;;
11935;SDS011;6027;48.576;9.180;2022-09-13T16:08:08;3.83;;;0.77;;
11935;SDS011;6027;48.576;9.180;2022-09-13T16:10:35;0.77;;;0.68;;
11935;SDS011;6027;48.576;9.180;2022-09-13T16:13:01;1.60;;;0.80;;
11935;SDS011;6027;48.576;9.180;2022-09-13T16:15:26;2.15;;;0.70;;
11935;SDS011;6027;48.576;9.180;2022-09-13T16:17:52;2.17;;;0.80;;
11935;SDS011;6027;48.576;9.180;2022-09-13T16:20:18;1.50;;;0.90;;
11935;SDS011;6027;48.576;9.180;2022-09-13T16:22:44;0.70;;;0.70;;
11935;SDS011;6027;48.576;9.180;2022-09-13T16:25:13;2.15;;;0.90;;
11935;SDS011;6027;48.576;9.180;2022-09-13T16:27:42;1.05;;;0.80;;
11935;SDS011;6027;48.576;9.180;2022-09-13T16:30:12;0.77;;;0.77;;
11935;SDS011;6027;48.576;9.180;2022-09-13T16:32:40;0.95;;;0.82;;
11935;SDS011;6027;48.576;9.180;2022-09-13T16:35:06;1.05;;;0.95;;
11935;SDS011;6027;48.576;9.180;2022-09-13T16:37:32;1.77;;;1.10;;
11935;SDS011;6027;48.576;9.180;2022-09-13T16:39:58;1.98;;;1.15;;
11935;SDS011;6027;48.576;9.180;2022-09-13T16:42:24;1.13;;;0.82;;
11935;SDS011;6027;48.576;9.180;2022-09-13T16:44:49;1.80;;;0.98;;
11935;SDS011;6027;48.576;9.180;2022-09-13T16:47:15;2.15;;;0.93;;
11935;SDS011;6027;48.576;9.180;2022-09-13T16:49:40;2.08;;;0.93;;
11935;SDS011;6027;48.576;9.180;2022-09-13T16:52:06;1.25;;;1.00;;
11935;SDS011;6027;48.576;9.180;2022-09-13T16:54:32;2.33;;;1.48;;
11935;SDS011;6027;48.576;9.180;2022-09-13T16:56:59;2.08;;;1.30;;
11935;SDS011;6027;48.576;9.180;2022-09-13T16:59:25;3.15;;;1.00;;
11935;SDS011;6027;48.576;9.180;2022-09-13T17:01:51;1.70;;;1.23;;
11935;SDS011;6027;48.576;9.180;2022-09-13T17:04:16;3.70;;;1.10;;
11935;SDS011;6027;48.576;9.180;2022-09-13T17:06:42;3.80;;;1.20;;
11935;SDS011;6027;48.576;9.180;2022-09-13T17:09:08;3.92;;;1.25;;
11935;SDS011;6027;48.576;9.180;2022-09-13T17:11:35;2.72;;;1.13;;
11935;SDS011;6027;48.576;9.180;2022-09-13T17:14:04;3.08;;;1.10;;
11935;SDS011;6027;48.576;9.180;2022-09-13T17:16:32;3.40;;;1.15;;
11935;SDS011;6027;48.576;9.180;2022-09-13T17:19:02;3.53;;;1.05;;
11935;SDS011;6027;48.576;9.180;2022-09-13T17:21:30;1.50;;;1.10;;
11935;SDS011;6027;48.576;9.180;2022-09-13T17:23:57;1.25;;;1.10;;
11935;SDS011;6027;48.576;9.180;2022-09-13T17:26:23;1.38;;;0.93;;
11935;SDS011;6027;48.576;9.180;2022-09-13T17:28:49;2.20;;;1.13;;
11935;SDS011;6027;48.576;9.180;2022-09-13T17:31:15;3.65;;;0.90;;
11935;SDS011;6027;48.576;9.180;2022-09-13T17:33:41;3.17;;;1.23;;
11935;SDS011;6027;48.576;9.180;2022-09-13T17:36:08;4.25;;;1.35;;
11935;SDS011;6027;48.576;9.180;2022-09-13T17:38:35;3.17;;;1.02;;
11935;SDS011;6027;48.576;9.180;2022-09-13T17:41:08;3.40;;;1.35;;
11935;SDS011;6027;48.576;9.180;2022-09-13T17:43:43;2.35;;;1.30;;
11935;SDS011;6027;48.576;9.180;2022-09-13T17:46:11;1.98;;;1.40;;
11935;SDS011;6027;48.576;9.180;2022-09-13T17:48:38;3.50;;;1.00;;
11935;SDS011;6027;48.576;9.180;2022-09-13T17:51:11;2.67;;;1.10;;
11935;SDS011;6027;48.576;9.180;2022-09-13T17:53:39;2.05;;;1.00;;
11935;SDS011;6027;48.576;9.180;2022-09-13T17:56:26;1.90;;;1.20;;
11935;SDS011;6027;48.576;9.180;2022-09-13T17:59:08;4.35;;;1.40;;
11935;SDS011;6027;48.576;9.180;2022-09-13T18:01:35;6.25;;;1.38;;
11935;SDS011;6027;48.576;9.180;2022-09-13T18:04:02;4.05;;;1.40;;
11935;SDS011;6027;48.576;9.180;2022-09-13T18:06:28;4.45;;;1.50;;
11935;SDS011;6027;48.576;9.180;2022-09-13T18:08:54;4.88;;;1.23;;
11935;SDS011;6027;48.576;9.180;2022-09-13T18:11:19;3.83;;;1.30;;
11935;SDS011;6027;48.576;9.180;2022-09-13T18:13:45;1.73;;;1.33;;
11935;SDS011;6027;48.576;9.180;2022-09-13T18:16:13;3.55;;;1.30;;
11935;SDS011;6027;48.576;9.180;2022-09-13T18:18:41;2.00;;;1.20;;
11935;SDS011;6027;48.576;9.180;2022-09-13T18:21:07;2.70;;;1.35;;
11935;SDS011;6027;48.576;9.180;2022-09-13T18:23:33;2.45;;;1.20;;
11935;SDS011;6027;48.576;9.180;2022-09-13T18:26:06;5.47;;;1.40;;
11935;SDS011;6027;48.576;9.180;2022-09-13T18:28:34;3.33;;;1.33;;
11935;SDS011;6027;48.576;9.180;2022-09-13T18:31:01;1.95;;;1.30;;
11935;SDS011;6027;48.576;9.180;2022-09-13T18:33:29;3.38;;;1.30;;
11935;SDS011;6027;48.576;9.180;2022-09-13T18:38:27;6.45;;;1.45;;
11935;SDS011;6027;48.576;9.180;2022-09-13T18:41:03;4.18;;;1.60;;
11935;SDS011;6027;48.576;9.180;2022-09-13T18:43:34;4.88;;;1.63;;
11935;SDS011;6027;48.576;9.180;2022-09-13T18:46:01;1.73;;;1.50;;
11935;SDS011;6027;48.576;9.180;2022-09-13T18:48:31;4.25;;;1.60;;
11935;SDS011;6027;48.576;9.180;2022-09-13T18:50:58;4.65;;;1.55;;
11935;SDS011;6027;48.576;9.180;2022-09-13T18:53:24;5.57;;;1.63;;
11935;SDS011;6027;48.576;9.180;2022-09-13T18:55:51;7.68;;;1.30;;
11935;SDS011;6027;48.576;9.180;2022-09-13T18:58:17;1.83;;;1.50;;
11935;SDS011;6027;48.576;9.180;2022-09-13T19:00:43;1.95;;;1.60;;
11935;SDS011;6027;48.576;9.180;2022-09-13T19:03:09;4.13;;;1.70;;
11935;SDS011;6027;48.576;9.180;2022-09-13T19:05:35;4.93;;;1.60;;
11935;SDS011;6027;48.576;9.180;2022-09-13T19:08:07;6.05;;;1.80;;
11935;SDS011;6027;48.576;9.180;2022-09-13T19:10:34;2.40;;;1.70;;
11935;SDS011;6027;48.576;9.180;2022-09-13T19:13:01;3.55;;;1.63;;
11935;SDS011;6027;48.576;9.180;2022-09-13T19:15:26;4.05;;;2.08;;
11935;SDS011;6027;48.576;9.180;2022-09-13T19:17:52;4.13;;;1.83;;
11935;SDS011;6027;48.576;9.180;2022-09-13T19:20:18;4.03;;;1.95;;
11935;SDS011;6027;48.576;9.180;2022-09-13T19:22:48;5.90;;;1.65;;
11935;SDS011;6027;48.576;9.180;2022-09-13T19:25:16;3.33;;;1.60;;
11935;SDS011;6027;48.576;9.180;2022-09-13T19:27:44;2.75;;;1.50;;